createdAt,value
2023-01-22T00:03:03.370Z,11.85
2023-01-22T00:08:26.909Z,12.15
2023-01-22T00:13:50.821Z,11.73
2023-01-22T00:19:16.739Z,10.95
2023-01-22T00:24:41.449Z,11.18
2023-01-22T00:30:05.324Z,10.60
2023-01-22T00:35:30.413Z,10.60
2023-01-22T00:40:53.812Z,11.15
2023-01-22T00:46:18.403Z,11.63
2023-01-22T00:51:43.799Z,10.23
2023-01-22T00:57:06.991Z,10.02
2023-01-22T01:02:30.526Z,11.10
2023-01-22T01:07:55.101Z,11.35
2023-01-22T01:13:18.549Z,10.27
2023-01-22T01:18:42.769Z,11.05
2023-01-22T01:24:08.391Z,10.23
2023-01-22T01:29:31.899Z,10.48
2023-01-22T01:34:55.232Z,9.98
2023-01-22T01:40:20.338Z,9.00
2023-01-22T01:45:44.044Z,9.65
2023-01-22T01:51:13.317Z,9.45
2023-01-22T01:56:42.265Z,11.70
2023-01-22T02:02:06.598Z,10.75
2023-01-22T02:07:30.523Z,12.40
2023-01-22T02:12:59.448Z,12.75
2023-01-22T02:18:23.527Z,13.93
2023-01-22T02:23:48.738Z,15.75
2023-01-22T02:29:14.504Z,16.00
2023-01-22T02:34:37.615Z,17.70
2023-01-22T02:40:03.084Z,17.25
2023-01-22T02:45:32.696Z,17.70
2023-01-22T02:51:02.194Z,15.85
2023-01-22T02:56:34.484Z,16.65
2023-01-22T03:02:04.014Z,17.48
2023-01-22T03:07:42.184Z,17.77
2023-01-22T03:13:31.074Z,18.75
2023-01-22T03:19:14.328Z,17.35
2023-01-22T03:24:43.167Z,17.17
2023-01-22T03:30:10.784Z,17.30
2023-01-22T03:41:20.317Z,16.00
2023-01-22T03:46:52.076Z,18.63
2023-01-22T03:52:21.145Z,16.85
2023-01-22T03:57:50.199Z,17.00
2023-01-22T04:08:46.888Z,16.30
2023-01-22T04:14:13.050Z,15.02
2023-01-22T04:19:43.334Z,15.10
2023-01-22T04:25:25.817Z,15.82
2023-01-22T04:30:54.241Z,15.68
2023-01-22T04:36:42.260Z,16.80
2023-01-22T04:42:11.956Z,15.95
2023-01-22T04:47:42.571Z,15.25
2023-01-22T04:53:09.438Z,15.45
2023-01-22T04:58:34.469Z,14.50
2023-01-22T05:04:02.163Z,14.10
2023-01-22T05:09:31.674Z,14.00
2023-01-22T05:15:05.546Z,14.48
2023-01-22T05:20:36.859Z,13.90
2023-01-22T05:26:08.354Z,13.70
2023-01-22T05:31:44.104Z,12.68
2023-01-22T05:37:35.293Z,14.00
2023-01-22T05:43:07.477Z,12.30
2023-01-22T05:48:33.650Z,11.48
2023-01-22T05:54:07.649Z,10.85
2023-01-22T05:59:35.910Z,12.30
2023-01-22T06:05:09.254Z,9.95
2023-01-22T06:10:37.991Z,10.60
2023-01-22T06:16:09.061Z,10.97
2023-01-22T06:21:58.277Z,11.10
2023-01-22T06:27:33.956Z,11.50
2023-01-22T06:33:04.109Z,9.38
2023-01-22T06:38:34.100Z,10.27
2023-01-22T06:44:01.303Z,9.35
2023-01-22T06:49:32.627Z,9.18
2023-01-22T06:54:56.587Z,10.40
2023-01-22T07:00:27.343Z,9.88
2023-01-22T07:06:01.510Z,11.53
2023-01-22T07:11:29.892Z,11.98
2023-01-22T07:16:59.229Z,19.23
2023-01-22T07:22:29.739Z,13.60
2023-01-22T07:28:00.917Z,11.90
2023-01-22T07:33:30.130Z,10.00
2023-01-22T07:38:55.236Z,9.27
2023-01-22T07:44:24.323Z,11.73
2023-01-22T07:49:53.239Z,9.93
2023-01-22T07:55:27.916Z,8.30
2023-01-22T08:00:57.650Z,8.50
2023-01-22T08:06:21.796Z,9.20
2023-01-22T08:11:46.992Z,8.35
2023-01-22T08:17:16.178Z,7.57
2023-01-22T08:22:45.510Z,7.30
2023-01-22T08:28:15.572Z,7.23
2023-01-22T08:39:13.936Z,6.55
2023-01-22T08:50:13.422Z,6.80
2023-01-22T08:55:42.061Z,7.05
2023-01-22T09:01:17.851Z,8.97
2023-01-22T09:06:47.407Z,6.35
2023-01-22T09:12:16.102Z,6.28
2023-01-22T09:17:46.734Z,8.73
2023-01-22T09:23:16.333Z,6.53
2023-01-22T09:28:44.996Z,7.83
2023-01-22T09:34:15.185Z,8.80
2023-01-22T09:39:44.110Z,11.05
2023-01-22T09:45:16.323Z,9.18
2023-01-22T09:50:47.573Z,8.55
2023-01-22T09:56:22.241Z,10.48
2023-01-22T10:01:54.552Z,12.27
2023-01-22T13:48:42.567Z,12.27
2023-01-22T13:54:21.978Z,10.88
2023-01-22T13:59:55.349Z,10.77
2023-01-22T14:05:27.167Z,11.98
2023-01-22T14:10:57.965Z,9.57
2023-01-22T14:16:27.201Z,7.22
2023-01-22T14:21:58.956Z,8.48
2023-01-22T14:27:30.088Z,6.80
2023-01-22T14:32:53.332Z,8.25
2023-01-22T14:38:25.597Z,8.93
2023-01-22T14:43:54.154Z,7.40
2023-01-22T14:49:23.017Z,7.73
2023-01-22T14:54:55.390Z,7.50
2023-01-22T15:00:21.003Z,8.20
2023-01-22T15:05:52.211Z,9.13
2023-01-22T15:11:17.028Z,9.20
2023-01-22T15:16:46.331Z,10.20
2023-01-22T15:22:12.496Z,10.07
2023-01-22T15:27:37.784Z,7.97
2023-01-22T15:33:01.327Z,8.32
2023-01-22T15:38:30.566Z,8.05
2023-01-22T15:44:03.433Z,6.10
2023-01-22T15:49:32.060Z,7.13
2023-01-22T15:55:01.555Z,6.88
2023-01-22T16:00:31.526Z,6.13
2023-01-22T16:06:09.905Z,6.40
2023-01-22T16:11:39.609Z,9.57
2023-01-22T16:17:09.714Z,16.03
2023-01-22T16:22:39.086Z,12.23
2023-01-22T16:28:08.151Z,12.77
2023-01-22T16:33:42.313Z,16.52
2023-01-22T16:39:16.616Z,17.45
2023-01-22T16:44:44.994Z,15.02
2023-01-22T16:50:15.740Z,16.25
2023-01-22T16:55:45.085Z,14.52
2023-01-22T17:01:15.432Z,12.30
2023-01-22T17:06:50.823Z,11.02
2023-01-22T17:12:21.027Z,12.35
2023-01-22T17:23:20.161Z,12.70
2023-01-22T17:28:49.443Z,19.33
2023-01-22T17:34:18.461Z,13.43
2023-01-22T17:39:50.717Z,11.23
2023-01-22T17:45:20.659Z,9.95
2023-01-22T17:50:51.486Z,8.52
2023-01-22T17:56:24.470Z,9.05
2023-01-22T18:01:53.272Z,9.77
2023-01-22T18:07:22.488Z,10.45
2023-01-22T18:12:52.636Z,9.60
2023-01-22T18:18:21.003Z,10.80
2023-01-22T18:23:50.987Z,10.10
2023-01-22T18:29:21.451Z,10.43
2023-01-22T18:34:50.014Z,10.93
2023-01-22T18:40:19.616Z,11.25
2023-01-22T18:45:49.448Z,11.32
2023-01-22T18:51:18.365Z,11.43
2023-01-22T18:56:47.809Z,11.25
2023-01-22T19:02:21.767Z,16.05
2023-01-22T23:17:34.777Z,11.43
2023-01-22T23:23:04.340Z,10.75
2023-01-22T23:28:33.139Z,7.87
2023-01-22T23:34:04.113Z,8.13
2023-01-22T23:39:32.034Z,8.77
2023-01-22T23:45:00.142Z,6.75
2023-01-22T23:50:30.357Z,9.07
2023-01-22T23:55:59.741Z,8.40
